Cytokinetics Inc (CYTK)

Market is closed
Insider Trading: Sales
Insider Price Amount Total Value Remaining Holdings Date Form 4
$16.00 3,333 $53,328.00 0 2020-04-28 Filing
$14.82 8,000 $118,592.00 20,000 2020-03-06 Filing
$15.79 74,893 $1,182,320.81 424,419 2020-02-13 Filing
$15.79 510,793 $8,063,786.93 2,350,829 2020-02-13 Filing
$15.79 486,344 $7,677,815.46 3,131,432 2020-02-13 Filing
$12.96 4,950 $64,158.93 224,107 2020-01-15 Filing
$10.22 6,000 $61,326.00 229,057 2019-12-16 Filing
$9.80 1,500 $14,700.00 121,350 2019-12-05 Filing
$8.08 6,000 $48,508.20 235,057 2019-11-15 Filing
$9.98 1,500 $14,970.00 122,850 2019-11-07 Filing
$11.16 6,000 $66,975.00 238,022 2019-10-15 Filing
$11.22 1,500 $16,830.00 122,067 2019-10-03 Filing
$12.74 6,000 $76,469.40 244,022 2019-09-16 Filing
$13.69 1,500 $20,531.25 123,567 2019-09-05 Filing
$12.64 6,000 $75,814.80 250,022 2019-08-15 Filing
$13.52 1,500 $20,280.00 125,067 2019-08-08 Filing
$10.94 6,000 $65,632.20 256,022 2019-07-15 Filing
$11.26 1,500 $16,890.00 126,567 2019-07-11 Filing
$9.71 6,000 $58,238.40 262,022 2019-06-17 Filing
$10.31 1,500 $15,462.75 128,067 2019-06-06 Filing